シンガポール/チャンギ の空港の天気 - METARとTAF

シンガポール・チャンギ国際空港 ( WSSS / SIN ) - シンガポール Changi
飛行場実況気象(Metar)
観測時間03/26 15:00 +08 (03/26 07:00 UTC)
風向・風速北北東 4m/s
視程10km以上
天気現象
全天の4割程度の雲 雲底高度 670m
全天の8割程度の雲 雲底高度 10670m
気温33℃
湿度59%
気圧1009hPa
METARWSSS 260700Z 03007KT 360V070 9999 SCT022 BKN350 33/24 Q1009 NOSIG
過去の天気等 Google飛行場航空写真 Wunderground天気予報

過去48時間のMETAR

飛行場予報(TAF)
発表時間: 3/26 13:00 +08 (3/26 05:00 UTC)
予報対象時間: 26日14時 +08 ~ 27日20時 +08
風向・風速北東 4m/s
視程10km以上
少しの積乱雲 雲底高度 550m
全天の4割程度の雲 雲底高度 610m
26日14時 +08 ~ 26日18時 +08 に一時的に
視程3,000m
天気現象雷雨
少しの積乱雲 雲底高度 370m
全天の8割程度の雲 雲底高度 460m
27日14時 +08 ~ 27日18時 +08 に一時的に
視程3,000m
天気現象雷雨
少しの積乱雲 雲底高度 370m
全天の8割程度の雲 雲底高度 460m
TAF WSSS 260500Z 2606/2712 04007KT 9999 FEW018CB SCT020
TEMPO 2606/2610 3000 TSRA FEW012CB BKN015
TEMPO 2706/2710 3000 TSRA FEW012CB BKN015